createdAt,value
2022-11-01T00:18:57.323Z,12.97
2022-11-01T00:41:15.890Z,12.98
2022-11-01T01:16:26.381Z,13.07
2022-11-01T01:25:52.556Z,13.00
2022-11-01T03:22:43.964Z,12.31
2022-11-01T04:33:14.717Z,11.75
2022-11-01T04:56:33.787Z,11.62
2022-11-01T05:30:40.297Z,11.46
2022-11-01T05:41:01.616Z,11.48
2022-11-01T05:52:27.730Z,11.48
2022-11-01T06:15:21.899Z,11.61
2022-11-01T06:26:20.471Z,11.59
2022-11-01T07:01:44.992Z,11.66
2022-11-01T07:11:52.068Z,11.74
2022-11-01T07:44:05.950Z,12.19
2022-11-01T07:54:35.868Z,12.28
2022-11-01T09:01:16.193Z,12.80
2022-11-01T09:12:23.443Z,12.82
2022-11-01T09:22:47.574Z,12.93
2022-11-01T09:33:50.745Z,13.02
2022-11-01T09:57:10.030Z,13.14
2022-11-01T10:07:41.909Z,13.21
2022-11-01T10:17:58.664Z,13.13
2022-11-01T10:29:25.675Z,13.03
2022-11-01T10:40:00.092Z,12.92
2022-11-01T10:50:30.371Z,13.03
2022-11-01T11:00:40.661Z,13.04
2022-11-01T11:10:53.131Z,12.98
2022-11-01T11:21:05.304Z,12.99
2022-11-01T11:31:29.577Z,13.04
2022-11-01T11:41:44.020Z,13.15
2022-11-01T11:52:16.312Z,13.18
2022-11-01T12:02:51.707Z,13.13
2022-11-01T12:13:54.525Z,13.08
2022-11-01T12:24:25.329Z,12.92
2022-11-01T12:34:42.475Z,12.97
2022-11-01T12:45:41.232Z,12.99
2022-11-01T12:56:12.995Z,12.98
2022-11-01T13:06:51.633Z,12.96
2022-11-01T13:17:28.453Z,13.02
2022-11-01T13:27:51.587Z,12.88
2022-11-01T13:38:39.791Z,12.82
2022-11-01T13:49:17.672Z,12.80
2022-11-01T13:59:44.772Z,12.78
2022-11-01T14:09:54.162Z,12.69
2022-11-01T14:20:15.941Z,12.56
2022-11-01T14:31:08.448Z,12.51
2022-11-01T14:41:59.511Z,12.52
2022-11-01T14:53:27.793Z,12.51
2022-11-01T15:14:59.767Z,12.44
2022-11-01T15:25:34.081Z,12.41
2022-11-01T15:36:03.470Z,12.42
2022-11-01T15:46:11.311Z,12.37
2022-11-01T15:56:43.172Z,12.29
2022-11-01T16:07:03.374Z,12.23
2022-11-01T16:17:52.297Z,12.22
2022-11-01T16:28:56.960Z,12.18
2022-11-01T16:39:32.052Z,12.16
2022-11-01T16:50:00.393Z,12.16
2022-11-01T17:00:06.183Z,12.26
2022-11-01T17:10:25.167Z,12.30
2022-11-01T17:20:37.040Z,12.29
2022-11-01T17:31:01.942Z,12.29
2022-11-01T17:41:25.556Z,12.23
2022-11-01T18:02:37.418Z,12.11
2022-11-01T18:13:16.889Z,12.06
2022-11-01T18:23:44.118Z,12.06
2022-11-01T18:34:27.176Z,12.04
2022-11-01T18:46:19.174Z,11.94
2022-11-01T18:56:26.636Z,11.83
2022-11-01T19:06:32.600Z,11.83
2022-11-01T19:16:44.610Z,11.90
2022-11-01T19:26:48.641Z,11.97
2022-11-01T19:37:36.514Z,12.01
2022-11-01T19:47:51.553Z,12.02
2022-11-01T19:58:51.421Z,12.08
2022-11-01T20:22:15.589Z,12.10
2022-11-01T21:09:05.878Z,12.09
2022-11-01T21:20:52.712Z,12.09
2022-11-01T21:43:19.212Z,12.07
2022-11-01T22:40:42.781Z,11.83
2022-11-01T22:52:10.327Z,11.78
2022-11-01T23:03:29.880Z,11.75
2022-11-01T23:26:48.923Z,11.56
